KTAD/TAD METAR and TAF weather

Enter ICAO airport designator
Station Type Date Time Source
KTAD METAR 2020/11/28 19:54 UTC NOAA

KTAD 281954Z AUTO 36004KT 10SM CLR 09/M06 A3008 RMK AO2 SLP168 T00891056


Station Type Date Time Source
KTAD Decoded METAR 2020/11/28 19:54 UTC NOAA

Trinidad, Perry Stokes Airport, CO, United States (KTAD) 37-16N 104-26W
Nov 28, 2020 - 02:54 PM EST / 2020.11.28 1954 UTC
Wind: from the N (360 degrees) at 5 MPH (4 KT):0
Visibility: 10 mile(s):0
Sky conditions: clear
Temperature: 48.0 F (8.9 C)
Dew Point: 21.9 F (-5.6 C)
Relative Humidity: 35%
Pressure (altimeter): 30.08 in. Hg (1018 hPa)
ob: KTAD 281954Z AUTO 36004KT 10SM CLR 09/M06 A3008 RMK AO2 SLP168 T00891056
cycle: 20

Station Type Date Time Source
KTAD TAF UTC NOAA

Error!

Example: see airport list